Time;durP1;ratioP1;P1;durP2;ratioP2;P2;SDS_P1;SDS_P2;PMS_P1;PMS_P2;Temp;Humidity;BMP_temperature;BMP_pressure;BME280_temperature;BME280_humidity;BME280_pressure;Samples;Min_cycle;Max_cycle;Signal;HPM_P1;HPM_P2
2022/03/09 00:00:34;;;;;;;7.50;3.80;;;;;;;-3.20;69.05;99722.45;109391;1274;22446;-62
2022/03/09 00:03:03;;;;;;;4.60;2.60;;;;;;;-3.24;69.02;99717.28;109369;1274;22557;-62
2022/03/09 00:05:34;;;;;;;7.60;3.70;;;;;;;-3.27;69.23;99717.70;109220;1274;138866;-62
2022/03/09 00:08:02;;;;;;;5.00;3.30;;;;;;;-3.26;69.17;99725.66;109415;1274;23456;-62
2022/03/09 00:10:31;;;;;;;5.00;3.40;;;;;;;-3.27;69.35;99725.27;109159;1274;139037;-62
2022/03/09 00:12:59;;;;;;;5.10;3.20;;;;;;;-3.28;69.40;99725.78;109384;1274;22445;-62
2022/03/09 00:15:27;;;;;;;6.50;3.10;;;;;;;-3.30;69.62;99727.58;108802;1274;23040;-62
2022/03/09 00:17:56;;;;;;;6.00;3.20;;;;;;;-3.32;69.93;99725.59;104710;1274;137880;-61
2022/03/09 00:20:24;;;;;;;6.50;3.60;;;;;;;-3.32;70.39;99725.09;104962;1274;22602;-61
2022/03/09 00:22:52;;;;;;;5.40;3.20;;;;;;;-3.34;70.67;99721.61;104892;1274;138591;-61
2022/03/09 00:25:21;;;;;;;4.60;3.10;;;;;;;-3.31;70.98;99725.55;105026;1274;22595;-61
2022/03/09 00:27:49;;;;;;;5.00;3.50;;;;;;;-3.30;71.02;99721.52;104942;1274;138773;-61
2022/03/09 00:30:18;;;;;;;6.80;3.90;;;;;;;-3.30;71.34;99718.13;105006;1274;22809;-62
2022/03/09 00:32:47;;;;;;;5.40;3.60;;;;;;;-3.29;71.46;99718.36;104854;1274;23008;-61
2022/03/09 00:35:15;;;;;;;7.20;3.40;;;;;;;-3.28;71.38;99715.44;109184;1274;139001;-62
2022/03/09 00:37:43;;;;;;;7.10;3.40;;;;;;;-3.29;71.17;99721.55;109411;1274;22250;-62
2022/03/09 00:40:11;;;;;;;6.70;3.50;;;;;;;-3.30;71.16;99715.63;109221;1274;138838;-62
2022/03/09 00:42:40;;;;;;;6.00;3.80;;;;;;;-3.32;71.21;99720.09;109368;1274;22515;-62
2022/03/09 00:45:09;;;;;;;6.30;3.70;;;;;;;-3.35;71.20;99724.77;109394;1274;22421;-55
2022/03/09 00:47:37;;;;;;;5.40;3.20;;;;;;;-3.38;71.23;99720.09;109221;1274;137565;-62
2022/03/09 00:50:06;;;;;;;7.20;4.20;;;;;;;-3.37;71.37;99726.39;109363;1273;22478;-62
2022/03/09 00:52:37;;;;;;;6.00;3.60;;;;;;;-3.38;71.30;99725.45;109287;1273;138473;-62
2022/03/09 00:55:06;;;;;;;6.10;3.40;;;;;;;-3.40;71.64;99723.88;109403;1274;22505;-62
2022/03/09 00:57:34;;;;;;;8.10;3.90;;;;;;;-3.41;71.48;99718.68;109337;1274;22914;-62
2022/03/09 01:00:03;;;;;;;9.20;3.90;;;;;;;-3.43;71.44;99721.48;109261;1274;138691;-62
2022/03/09 01:02:31;;;;;;;6.80;3.60;;;;;;;-3.43;71.46;99718.54;109406;1274;22477;-62
2022/03/09 01:05:43;;;;;;;5.80;3.70;;;;;;;-3.45;71.47;99722.23;109242;1274;137658;-62
2022/03/09 01:08:12;;;;;;;5.20;3.70;;;;;;;-3.44;71.61;99721.66;109363;1274;22410;-62
2022/03/09 01:10:42;;;;;;;5.70;3.90;;;;;;;-3.44;71.63;99723.23;109261;1273;138603;-62
2022/03/09 01:13:10;;;;;;;6.40;3.70;;;;;;;-3.43;71.84;99728.66;109412;1274;22456;-62
2022/03/09 01:15:38;;;;;;;7.10;4.50;;;;;;;-3.45;72.07;99727.59;108362;1274;25535;-62
2022/03/09 01:18:06;;;;;;;8.20;3.90;;;;;;;-3.47;72.20;99728.20;104856;1274;137410;-61
2022/03/09 01:20:35;;;;;;;7.00;3.70;;;;;;;-3.50;72.34;99725.86;109367;1274;23237;-61
2022/03/09 01:23:03;;;;;;;8.30;3.70;;;;;;;-3.54;72.35;99722.33;109248;1274;137915;-61
2022/03/09 01:25:31;;;;;;;10.20;4.00;;;;;;;-3.56;72.47;99717.39;109318;1274;22475;-62
2022/03/09 01:27:59;;;;;;;6.30;3.70;;;;;;;-3.58;72.46;99717.38;109356;1272;139060;-61
2022/03/09 01:30:27;;;;;;;5.50;3.90;;;;;;;-3.60;72.54;99714.64;109385;1274;23202;-62
2022/03/09 01:32:55;;;;;;;5.70;3.50;;;;;;;-3.61;72.52;99723.68;109368;1274;22421;-62
2022/03/09 01:35:24;;;;;;;7.60;4.00;;;;;;;-3.63;72.39;99728.80;109303;1274;137950;-62
2022/03/09 01:37:52;;;;;;;5.60;3.60;;;;;;;-3.64;72.41;99725.93;109355;1274;22424;-62
2022/03/09 01:40:21;;;;;;;8.00;4.80;;;;;;;-3.65;72.23;99730.61;109273;1274;138414;-61
2022/03/09 01:42:53;;;;;;;7.30;4.40;;;;;;;-3.69;72.20;99725.38;109348;1274;24281;-62
2022/03/09 01:45:21;;;;;;;8.90;5.10;;;;;;;-3.69;72.03;99734.20;109404;1274;22457;-62
2022/03/09 01:47:50;;;;;;;5.60;4.20;;;;;;;-3.75;72.06;99730.80;109309;1274;138103;-61
2022/03/09 01:50:18;;;;;;;6.00;4.10;;;;;;;-3.75;72.05;99736.34;109395;1273;22509;-61
2022/03/09 01:52:46;;;;;;;9.00;4.30;;;;;;;-3.76;72.04;99734.12;109344;1274;138290;-61
2022/03/09 01:55:16;;;;;;;7.10;4.40;;;;;;;-3.78;72.18;99728.48;109133;1274;22603;-61
2022/03/09 01:57:44;;;;;;;6.70;4.10;;;;;;;-3.78;72.37;99735.17;109376;1274;23363;-61
2022/03/09 02:00:13;;;;;;;6.10;3.80;;;;;;;-3.77;72.45;99740.07;109328;1274;138446;-62
2022/03/09 02:02:42;;;;;;;6.40;4.50;;;;;;;-3.75;72.40;99740.72;109313;1274;22608;-61
2022/03/09 02:05:10;;;;;;;7.70;4.30;;;;;;;-3.71;72.58;99743.83;109280;1272;138376;-62
2022/03/09 02:10:32;;;;;;;6.00;4.30;;;;;;;-3.62;72.39;99742.59;109267;1274;138369;-62
2022/03/09 02:13:01;;;;;;;7.80;4.30;;;;;;;-3.61;72.41;99745.92;109277;1274;22505;-62
2022/03/09 02:15:29;;;;;;;6.70;4.40;;;;;;;-3.59;72.22;99749.89;109364;1274;22413;-62
2022/03/09 02:18:01;;;;;;;6.70;4.40;;;;;;;-3.61;71.93;99746.45;109284;1274;138087;-62
2022/03/09 02:20:29;;;;;;;7.80;5.00;;;;;;;-3.63;71.93;99748.54;109202;1276;22460;-62
2022/03/09 02:23:00;;;;;;;6.50;4.20;;;;;;;-3.67;71.97;99749.59;109269;1274;138405;-62
2022/03/09 02:25:28;;;;;;;8.80;4.70;;;;;;;-3.71;71.82;99749.48;109384;1274;23175;-62
2022/03/09 02:28:00;;;;;;;7.80;4.40;;;;;;;-3.75;71.87;99754.93;109300;1274;137436;-62
2022/03/09 02:30:28;;;;;;;6.00;4.30;;;;;;;-3.78;71.89;99754.58;109361;1274;22448;-62
2022/03/09 02:32:56;;;;;;;10.40;5.20;;;;;;;-3.80;72.03;99753.92;109405;1274;22398;-62
2022/03/09 02:35:24;;;;;;;8.10;4.60;;;;;;;-3.83;72.12;99753.98;109271;1274;139873;-62
2022/03/09 02:37:53;;;;;;;9.40;5.10;;;;;;;-3.86;72.04;99760.77;109364;1274;22457;-62
2022/03/09 02:40:21;;;;;;;8.80;5.40;;;;;;;-3.89;72.35;99763.81;109054;1276;139281;-62
2022/03/09 02:42:49;;;;;;;8.30;4.90;;;;;;;-3.88;72.41;99766.02;109391;1274;22383;-62
2022/03/09 02:45:18;;;;;;;7.00;4.40;;;;;;;-3.85;72.34;99768.27;109371;1274;22547;-62
2022/03/09 02:47:46;;;;;;;6.30;3.80;;;;;;;-3.82;72.56;99768.65;109274;1274;137875;-62
2022/03/09 02:50:15;;;;;;;7.60;4.40;;;;;;;-3.82;72.53;99762.27;109369;1274;22506;-61
2022/03/09 02:52:44;;;;;;;5.30;3.90;;;;;;;-3.75;72.45;99769.55;109296;1273;139386;-62
2022/03/09 02:55:14;;;;;;;7.30;5.00;;;;;;;-3.73;72.53;99776.95;109336;1274;22452;-62
2022/03/09 02:57:42;;;;;;;8.80;5.00;;;;;;;-3.72;72.48;99773.41;109306;1274;22697;-62
2022/03/09 03:00:11;;;;;;;8.70;4.70;;;;;;;-3.70;72.51;99775.91;109255;1273;137163;-62
2022/03/09 03:02:40;;;;;;;8.80;4.70;;;;;;;-3.69;72.42;99780.02;109290;1274;23536;-61
2022/03/09 03:05:09;;;;;;;8.10;5.00;;;;;;;-3.68;72.38;99780.15;109304;1274;137769;-61
2022/03/09 03:07:37;;;;;;;9.70;5.20;;;;;;;-3.68;72.37;99780.98;109443;1274;23631;-61
2022/03/09 03:10:06;;;;;;;6.70;4.60;;;;;;;-3.67;72.40;99782.33;109254;1274;139557;-62
2022/03/09 03:12:36;;;;;;;9.10;5.60;;;;;;;-3.66;72.23;99783.06;109390;1274;22587;-61
2022/03/09 03:15:06;;;;;;;6.40;4.30;;;;;;;-3.65;72.39;99785.97;109354;1274;22428;-61
2022/03/09 03:17:36;;;;;;;9.50;5.80;;;;;;;-3.63;72.51;99793.63;109119;1274;137553;-61
2022/03/09 03:20:05;;;;;;;8.50;5.40;;;;;;;-3.64;72.60;99789.27;109170;1276;23314;-61
2022/03/09 03:22:46;;;;;;;17.30;6.80;;;;;;;-3.65;72.75;99786.17;109077;1276;139392;-61
2022/03/09 03:25:15;;;;;;;12.50;6.70;;;;;;;-3.65;72.97;99788.63;109154;1276;22418;-61
2022/03/09 03:27:47;;;;;;;8.00;5.40;;;;;;;-3.65;73.14;99789.55;109206;1276;23218;-62
2022/03/09 03:30:16;;;;;;;9.90;6.60;;;;;;;-3.65;73.16;99787.96;109183;1276;138214;-61
2022/03/09 03:32:44;;;;;;;11.40;6.70;;;;;;;-3.65;73.05;99785.80;109243;1274;23132;-62
2022/03/09 03:35:13;;;;;;;8.50;5.30;;;;;;;-3.63;73.23;99782.78;109170;1274;139831;-62
2022/03/09 03:37:41;;;;;;;8.50;5.10;;;;;;;-3.62;73.35;99782.32;109151;1274;23733;-61
2022/03/09 03:40:09;;;;;;;8.10;5.60;;;;;;;-3.61;73.61;99782.39;109190;1274;138659;-61
2022/03/09 03:42:37;;;;;;;12.00;6.20;;;;;;;-3.59;73.58;99786.57;109297;1276;22485;-62
2022/03/09 03:45:06;;;;;;;9.10;5.80;;;;;;;-3.60;73.76;99781.05;109283;1274;22503;-62
2022/03/09 03:47:36;;;;;;;10.40;6.60;;;;;;;-3.58;73.79;99785.77;109249;1274;138036;-63
2022/03/09 03:50:05;;;;;;;10.70;6.50;;;;;;;-3.60;73.78;99785.60;109366;1274;22614;-62
2022/03/09 03:52:34;;;;;;;12.80;7.10;;;;;;;-3.62;73.96;99781.58;109249;1274;138968;-60
2022/03/09 03:55:03;;;;;;;10.70;6.40;;;;;;;-3.62;74.17;99785.31;109429;1274;22401;-61
2022/03/09 03:57:32;;;;;;;10.80;5.80;;;;;;;-3.65;74.10;99783.36;109398;1274;22504;-61
2022/03/09 04:00:00;;;;;;;13.70;6.20;;;;;;;-3.66;74.22;99787.75;109242;1274;138237;-61
2022/03/09 04:02:31;;;;;;;10.60;6.20;;;;;;;-3.68;74.17;99785.73;109405;1274;22513;-60
2022/03/09 04:05:02;;;;;;;12.30;6.60;;;;;;;-3.66;74.43;99790.21;109238;1274;139888;-61
2022/03/09 04:07:32;;;;;;;11.50;6.60;;;;;;;-3.64;74.68;99789.80;105090;1274;25334;-61
2022/03/09 04:10:02;;;;;;;11.10;6.20;;;;;;;-3.63;74.51;99788.40;104796;1274;139225;-60
2022/03/09 04:12:35;;;;;;;9.10;6.10;;;;;;;-3.60;74.68;99790.59;109405;1274;22464;-61
2022/03/09 04:15:04;;;;;;;9.00;5.70;;;;;;;-3.58;74.75;99786.70;109390;1274;22438;-61
2022/03/09 04:17:40;;;;;;;7.80;5.30;;;;;;;-3.56;74.62;99784.86;109243;1274;138363;-61
2022/03/09 04:20:10;;;;;;;7.70;5.50;;;;;;;-3.54;74.56;99790.55;109423;1274;22434;-61
2022/03/09 04:22:39;;;;;;;8.90;5.90;;;;;;;-3.55;74.60;99790.28;109213;1274;137722;-61
2022/03/09 04:25:08;;;;;;;10.30;5.70;;;;;;;-3.56;74.52;99788.08;109203;1276;23200;-61
2022/03/09 04:27:36;;;;;;;8.70;5.60;;;;;;;-3.56;74.50;99787.52;109224;1276;23765;-61
2022/03/09 04:30:09;;;;;;;15.00;6.30;;;;;;;-3.59;74.30;99790.96;109115;1276;139249;-61
2022/03/09 04:32:39;;;;;;;9.70;6.10;;;;;;;-3.65;74.29;99783.55;109223;1276;22453;-61
2022/03/09 04:35:09;;;;;;;9.50;5.40;;;;;;;-3.64;74.52;99789.96;109148;1274;137180;-61
2022/03/09 04:37:37;;;;;;;8.50;5.70;;;;;;;-3.65;74.52;99796.65;109342;1273;22496;-61
2022/03/09 04:40:06;;;;;;;9.70;6.20;;;;;;;-3.66;74.69;99804.06;109238;1274;137525;-61
2022/03/09 04:42:36;;;;;;;10.40;5.90;;;;;;;-3.67;74.64;99806.27;109288;1273;23188;-61
2022/03/09 04:45:05;;;;;;;8.50;5.80;;;;;;;-3.67;74.83;99809.95;109397;1274;22544;-61
2022/03/09 04:47:34;;;;;;;7.30;4.80;;;;;;;-3.65;74.82;99812.30;109163;1274;138423;-61
2022/03/09 04:50:04;;;;;;;7.80;5.00;;;;;;;-3.64;75.00;99816.83;109284;1275;22469;-61
2022/03/09 04:52:32;;;;;;;8.00;4.80;;;;;;;-3.68;74.93;99811.57;109252;1274;138209;-61
2022/03/09 04:55:00;;;;;;;6.00;4.20;;;;;;;-3.71;75.03;99818.20;109291;1274;23206;-61
2022/03/09 04:57:29;;;;;;;6.00;3.90;;;;;;;-3.73;75.26;99817.92;109307;1274;22484;-61
2022/03/09 04:59:58;;;;;;;8.20;5.10;;;;;;;-3.75;75.27;99823.13;109230;1274;138174;-61
2022/03/09 05:02:26;;;;;;;9.00;5.00;;;;;;;-3.78;75.33;99824.52;109293;1273;24755;-61
2022/03/09 05:04:55;;;;;;;7.10;4.80;;;;;;;-3.81;75.33;99830.15;109147;1274;137616;-61
2022/03/09 05:07:24;;;;;;;7.70;5.10;;;;;;;-3.86;75.44;99825.80;109328;1274;22513;-61
2022/03/09 05:09:52;;;;;;;5.60;4.90;;;;;;;-3.84;75.43;99837.64;109341;1274;22395;-61
2022/03/09 05:12:40;;;;;;;;;;;;;;;-3.84;75.56;99838.41;109352;1274;22523;-61
2022/03/09 05:15:08;;;;;;;7.30;4.30;;;;;;;-3.86;75.41;99843.38;109304;1274;23574;-61
2022/03/09 05:17:43;;;;;;;10.50;5.00;;;;;;;-3.88;75.61;99843.80;109221;1274;137935;-61
2022/03/09 05:20:12;;;;;;;7.10;4.50;;;;;;;-3.91;75.66;99847.44;109307;1274;23143;-61
2022/03/09 05:22:41;;;;;;;6.30;4.50;;;;;;;-3.92;75.56;99845.07;108885;1274;424359;-61
2022/03/09 05:27:15;;;;;;;7.80;4.60;;;;;;;-3.91;75.56;99847.92;101656;1310;561052;-61
2022/03/09 05:29:42;;;;;;;7.10;4.60;;;;;;;-3.91;75.56;99853.69;108207;1283;138090;-61
2022/03/09 05:32:09;;;;;;;7.60;4.40;;;;;;;-3.93;75.33;99857.54;108223;1286;22501;-61
2022/03/09 05:34:39;;;;;;;8.30;4.80;;;;;;;-3.93;75.43;99860.46;108149;1287;137706;-61
2022/03/09 05:37:06;;;;;;;6.30;4.60;;;;;;;-3.96;75.48;99860.50;108225;1286;23328;-61
2022/03/09 05:39:32;;;;;;;;;;;;;;;-3.95;75.42;99860.48;108095;1285;150479;-62
2022/03/09 05:41:59;;;;;;;8.20;5.00;;;;;;;-3.93;75.44;99864.02;108357;1284;125563;-62
2022/03/09 05:44:26;;;;;;;7.10;4.60;;;;;;;-3.93;75.58;99868.45;108395;1284;22512;-62
2022/03/09 05:46:54;;;;;;;11.50;6.10;;;;;;;-3.94;75.58;99874.20;108297;1284;138218;-63
2022/03/09 05:49:21;;;;;;;8.70;5.10;;;;;;;-3.95;75.38;99873.41;108453;1284;22473;-61
2022/03/09 05:51:49;;;;;;;8.50;5.50;;;;;;;-3.97;75.41;99873.80;108355;1284;22460;-61
2022/03/09 05:54:16;;;;;;;7.90;4.70;;;;;;;-3.99;75.31;99874.52;108234;1284;138553;-61
2022/03/09 05:56:45;;;;;;;6.90;4.60;;;;;;;-3.99;75.38;99874.21;108346;1284;23133;-61
2022/03/09 05:59:13;;;;;;;7.90;4.50;;;;;;;-3.99;75.57;99880.34;108202;1285;138308;-61
2022/03/09 06:01:41;;;;;;;7.70;4.60;;;;;;;-3.97;75.38;99885.51;108306;1286;22768;-61
2022/03/09 06:04:09;;;;;;;12.10;5.50;;;;;;;-3.98;75.38;99888.43;108309;1285;23289;-61
2022/03/09 06:06:37;;;;;;;8.10;5.10;;;;;;;-3.98;75.39;99885.43;108235;1284;138128;-61
2022/03/09 06:09:05;;;;;;;9.10;5.30;;;;;;;-3.98;75.45;99888.42;108363;1284;22473;-61
2022/03/09 06:11:33;;;;;;;8.00;4.90;;;;;;;-3.99;75.36;99892.05;108234;1286;137471;-61
2022/03/09 06:14:01;;;;;;;8.20;4.90;;;;;;;-3.98;75.38;99898.67;108341;1285;22532;-62
2022/03/09 06:16:29;;;;;;;8.10;5.40;;;;;;;-3.97;75.40;99898.23;108229;1285;139435;-62
2022/03/09 06:19:05;;;;;;;9.10;5.40;;;;;;;-3.97;75.57;99899.16;108327;1284;23267;-62
2022/03/09 06:21:33;;;;;;;8.10;5.10;;;;;;;-3.96;75.46;99900.46;108375;1284;23230;-62
2022/03/09 06:24:00;;;;;;;8.70;5.60;;;;;;;-3.95;75.35;99902.89;108234;1285;137483;-62
2022/03/09 06:26:28;;;;;;;10.60;6.30;;;;;;;-3.96;75.36;99901.21;108298;1286;23324;-62
2022/03/09 06:28:56;;;;;;;9.80;5.10;;;;;;;-4.01;75.30;99902.02;108282;1284;137687;-62
2022/03/09 06:31:24;;;;;;;9.10;5.20;;;;;;;-4.01;75.29;99902.04;108369;1285;23810;-62
2022/03/09 06:33:54;;;;;;;8.80;5.90;;;;;;;-3.97;75.49;99905.38;108368;1284;22481;-62
2022/03/09 06:36:25;;;;;;;8.70;5.30;;;;;;;-3.95;75.51;99907.79;108289;1285;138332;-62
2022/03/09 06:38:53;;;;;;;10.80;6.10;;;;;;;-3.91;75.48;99907.24;108315;1285;22528;-62
2022/03/09 06:41:21;;;;;;;8.40;5.80;;;;;;;-3.86;75.28;99910.09;108217;1286;138582;-62
2022/03/09 06:43:50;;;;;;;8.20;5.90;;;;;;;-3.86;75.11;99910.27;109332;1274;22506;-62
2022/03/09 06:46:18;;;;;;;10.40;5.90;;;;;;;-3.87;75.11;99907.92;109401;1274;22566;-62
2022/03/09 06:48:46;;;;;;;11.50;5.70;;;;;;;-3.87;75.12;99912.35;109310;1274;137282;-62
2022/03/09 06:51:15;;;;;;;12.20;6.40;;;;;;;-3.88;75.02;99912.31;109109;1276;23321;-62
2022/03/09 06:53:44;;;;;;;9.60;6.10;;;;;;;-3.90;75.20;99910.21;109163;1274;137690;-62
2022/03/09 06:56:12;;;;;;;8.90;6.40;;;;;;;-3.92;75.26;99905.21;109268;1274;22460;-61
2022/03/09 06:58:40;;;;;;;9.20;6.40;;;;;;;-3.95;75.32;99911.20;109206;1273;137472;-65
2022/03/09 07:01:10;;;;;;;11.20;7.10;;;;;;;-3.98;75.53;99909.85;109356;1274;22486;-61
2022/03/09 07:03:39;;;;;;;11.60;7.40;;;;;;;-3.96;75.77;99910.27;109337;1274;22528;-61
2022/03/09 07:06:12;;;;;;;10.40;6.40;;;;;;;-3.98;75.87;99905.33;109232;1274;138042;-60
2022/03/09 07:08:43;;;;;;;10.10;6.70;;;;;;;-3.90;76.12;99914.43;109092;1274;23270;-61
2022/03/09 07:11:11;;;;;;;12.30;6.70;;;;;;;-3.85;76.20;99915.73;109208;1274;137436;-61
2022/03/09 07:13:59;;;;;;;14.40;7.20;;;;;;;-3.83;76.10;99918.52;109290;1274;22391;-62
2022/03/09 07:16:28;;;;;;;10.10;6.30;;;;;;;-3.80;76.23;99914.86;109197;1274;138628;-61
2022/03/09 07:18:57;;;;;;;11.80;6.80;;;;;;;-3.76;76.40;99913.30;109316;1274;22524;-62
2022/03/09 07:21:34;;;;;;;11.50;6.70;;;;;;;-3.68;76.40;99915.88;109301;1274;22475;-62
2022/03/09 07:24:05;;;;;;;14.20;6.40;;;;;;;-3.65;76.24;99915.16;109171;1274;137722;-62
2022/03/09 07:26:33;;;;;;;10.40;6.90;;;;;;;-3.59;76.41;99914.20;109340;1274;22455;-61
2022/03/09 07:29:03;;;;;;;12.30;6.60;;;;;;;-3.52;76.37;99912.70;109212;1274;138515;-61
2022/03/09 07:31:31;;;;;;;12.80;7.30;;;;;;;-3.47;76.54;99916.36;109166;1276;23370;-62
2022/03/09 07:34:22;;;;;;;9.80;5.90;;;;;;;-3.42;76.26;99914.78;109309;1274;22417;-61
2022/03/09 07:36:58;;;;;;;11.10;6.50;;;;;;;-3.38;76.26;99915.27;109172;1274;138331;-62
2022/03/09 07:39:27;;;;;;;11.00;6.80;;;;;;;-3.38;76.15;99912.27;109287;1274;22547;-62
2022/03/09 07:41:56;;;;;;;12.00;6.50;;;;;;;-3.40;76.30;99912.84;109232;1274;138057;-62
2022/03/09 07:44:24;;;;;;;12.10;7.60;;;;;;;-3.38;76.26;99911.72;109306;1274;22564;-62
2022/03/09 07:46:55;;;;;;;10.30;6.80;;;;;;;-3.37;76.36;99913.35;109116;1274;138010;-62
2022/03/09 07:49:24;;;;;;;12.10;6.90;;;;;;;-3.34;76.21;99916.64;109270;1274;22522;-63
2022/03/09 07:51:55;;;;;;;10.70;6.10;;;;;;;-3.33;76.29;99911.35;109376;1274;22364;-62
2022/03/09 07:54:23;;;;;;;17.50;10.80;;;;;;;-3.32;76.34;99906.81;109236;1274;138523;-63
2022/03/09 07:56:51;;;;;;;12.20;7.40;;;;;;;-3.32;76.21;99905.41;109047;1274;22565;-62
2022/03/09 07:59:22;;;;;;;13.60;7.10;;;;;;;-3.31;76.21;99905.80;109239;1274;138702;-62
2022/03/09 08:01:55;;;;;;;9.80;6.00;;;;;;;-3.28;76.14;99906.23;109348;1274;23391;-62
2022/03/09 08:04:35;;;;;;;14.20;7.40;;;;;;;-3.23;76.08;99907.63;109299;1274;22642;-62
2022/03/09 08:07:12;;;;;;;10.40;6.90;;;;;;;-3.15;75.97;99904.81;108994;1274;138579;-62
2022/03/09 08:09:44;;;;;;;11.90;7.20;;;;;;;-3.06;75.89;99901.13;109188;1274;22282;-62
2022/03/09 08:12:14;;;;;;;12.30;7.10;;;;;;;-3.00;75.53;99900.99;109250;1274;138050;-60
2022/03/09 08:14:43;;;;;;;14.10;7.70;;;;;;;-2.99;75.09;99899.08;109394;1273;23061;-61
2022/03/09 08:17:12;;;;;;;12.20;7.20;;;;;;;-3.01;75.06;99895.56;108897;1274;138675;-62
2022/03/09 08:19:40;;;;;;;11.10;7.50;;;;;;;-3.00;75.03;99898.63;109108;1274;22493;-62
2022/03/09 08:22:08;;;;;;;14.40;9.50;;;;;;;-3.00;74.98;99899.48;109381;1274;22490;-61
2022/03/09 08:24:36;;;;;;;12.80;8.60;;;;;;;-2.95;75.09;99901.85;109132;1274;138942;-60
2022/03/09 08:27:10;;;;;;;11.60;6.90;;;;;;;-2.92;75.07;99908.06;109386;1274;22706;-63
2022/03/09 08:29:41;;;;;;;11.60;8.30;;;;;;;-2.86;75.12;99905.87;109290;1274;138289;-62
2022/03/09 08:32:19;;;;;;;13.10;7.50;;;;;;;-2.81;74.94;99908.03;109417;1274;23396;-62
2022/03/09 08:34:49;;;;;;;15.00;7.80;;;;;;;-2.78;74.90;99909.08;109268;1273;138464;-62
2022/03/09 08:37:19;;;;;;;10.00;6.40;;;;;;;-2.75;74.79;99907.67;109390;1273;22456;-63
2022/03/09 08:39:57;;;;;;;12.10;8.10;;;;;;;-2.71;74.44;99904.40;109333;1274;22463;-63
2022/03/09 08:42:27;;;;;;;12.20;7.90;;;;;;;-2.65;74.55;99908.43;109313;1273;138720;-63
2022/03/09 08:44:58;;;;;;;11.80;7.20;;;;;;;-2.60;74.39;99907.55;109368;1274;22553;-64
2022/03/09 08:47:30;;;;;;;11.90;7.70;;;;;;;-2.55;74.42;99909.11;109267;1273;138192;-63
2022/03/09 08:49:59;;;;;;;12.20;7.10;;;;;;;-2.49;74.20;99912.92;109400;1273;22408;-63
2022/03/09 08:52:50;;;;;;;9.00;6.60;;;;;;;-2.47;73.82;99913.43;109265;1273;139079;-62
2022/03/09 08:55:26;;;;;;;11.60;8.10;;;;;;;-2.47;73.84;99909.93;109345;1273;22522;-62
2022/03/09 08:57:55;;;;;;;9.60;7.20;;;;;;;-2.44;74.01;99907.27;109349;1273;23554;-62
2022/03/09 09:00:26;;;;;;;16.50;7.80;;;;;;;-2.37;73.93;99905.94;109281;1273;137523;-63
2022/03/09 09:02:58;;;;;;;14.30;8.40;;;;;;;-2.33;73.57;99911.01;109122;1273;23573;-63
2022/03/09 09:05:27;;;;;;;11.70;7.80;;;;;;;-2.31;73.54;99905.51;109260;1273;139627;-62
2022/03/09 09:07:56;;;;;;;15.70;8.60;;;;;;;-2.27;73.53;99907.50;109409;1273;22489;-63
2022/03/09 09:10:33;;;;;;;13.30;8.00;;;;;;;-2.22;73.33;99904.41;109193;1273;23709;-64
2022/03/09 09:13:10;;;;;;;10.60;5.90;;;;;;;-2.18;72.95;99905.28;109205;1273;137831;-61
2022/03/09 09:15:42;;;;;;;13.30;8.20;;;;;;;-2.15;73.04;99902.03;109370;1273;22496;-61
2022/03/09 09:18:12;;;;;;;12.50;7.80;;;;;;;-2.12;73.00;99898.34;109292;1273;138992;-62
2022/03/09 09:21:11;;;;;;;11.20;7.60;;;;;;;-2.07;72.34;99901.20;109352;1273;23363;-62
2022/03/09 09:23:39;;;;;;;13.40;8.80;;;;;;;-2.06;72.29;99903.58;108742;1274;139263;-63
2022/03/09 09:26:07;;;;;;;10.40;7.10;;;;;;;-2.02;72.28;99903.20;109384;1273;23448;-63
2022/03/09 09:28:59;;;;;;;13.90;8.50;;;;;;;-1.97;72.32;99905.27;109181;1273;137835;-62
2022/03/09 09:31:30;;;;;;;12.70;8.40;;;;;;;-1.94;72.09;99908.14;109392;1274;22268;-61
2022/03/09 09:33:58;;;;;;;12.10;8.10;;;;;;;-1.95;71.86;99905.73;109126;1274;22412;-62
2022/03/09 09:36:29;;;;;;;14.30;8.00;;;;;;;-1.94;71.92;99907.10;109031;1274;137877;-62
2022/03/09 09:39:08;;;;;;;14.50;9.00;;;;;;;-1.93;71.78;99902.30;109382;1272;22519;-62
2022/03/09 09:41:48;;;;;;;11.40;7.60;;;;;;;-1.93;71.45;99900.89;109281;1272;140795;-62
2022/03/09 09:44:19;;;;;;;14.30;8.40;;;;;;;-1.92;71.64;99907.77;109384;1273;22659;-62
2022/03/09 09:46:53;;;;;;;12.00;7.80;;;;;;;-1.91;71.25;99905.06;109300;1273;139560;-62
2022/03/09 09:49:25;;;;;;;13.00;7.80;;;;;;;-1.87;71.45;99902.76;109348;1273;22774;-62
2022/03/09 09:51:54;;;;;;;10.90;7.30;;;;;;;-1.82;71.25;99899.10;109361;1273;22447;-62
2022/03/09 09:54:27;;;;;;;11.70;7.70;;;;;;;-1.79;71.01;99903.91;109283;1273;139038;-62
2022/03/09 09:57:00;;;;;;;11.80;7.30;;;;;;;-1.76;71.09;99898.87;109163;1273;22461;-62
2022/03/09 09:59:28;;;;;;;12.30;7.90;;;;;;;-1.71;71.06;99902.22;109224;1274;139143;-62
2022/03/09 10:01:59;;;;;;;12.90;8.20;;;;;;;-1.66;70.73;99903.39;109383;1273;22528;-62
2022/03/09 10:04:27;;;;;;;10.80;6.80;;;;;;;-1.60;70.75;99907.43;109397;1273;23603;-62
2022/03/09 10:07:04;;;;;;;12.70;7.80;;;;;;;-1.56;70.43;99906.92;109025;1273;137569;-62
2022/03/09 10:09:46;;;;;;;10.50;7.20;;;;;;;-1.51;70.19;99906.13;109398;1272;23301;-62
2022/03/09 10:12:28;;;;;;;11.40;7.50;;;;;;;-1.44;69.86;99905.74;109296;1273;137641;-62
2022/03/09 10:15:03;;;;;;;12.60;7.10;;;;;;;-1.40;69.33;99909.06;109138;1273;23189;-62
2022/03/09 10:17:40;;;;;;;11.90;7.20;;;;;;;-1.42;68.97;99906.63;109268;1274;137422;-62
2022/03/09 10:20:13;;;;;;;10.40;6.10;;;;;;;-1.39;69.05;99908.22;109391;1273;23593;-62
2022/03/09 10:22:46;;;;;;;10.80;6.50;;;;;;;-1.36;69.09;99909.62;109368;1273;22703;-62
2022/03/09 10:25:29;;;;;;;9.80;6.50;;;;;;;-1.30;68.76;99912.37;109271;1273;137479;-62
2022/03/09 10:28:08;;;;;;;9.50;6.60;;;;;;;-1.27;68.26;99912.39;109391;1273;22526;-62
2022/03/09 10:30:42;;;;;;;10.40;6.20;;;;;;;-1.29;67.65;99914.93;109263;1273;137712;-62
2022/03/09 10:33:13;;;;;;;11.70;6.30;;;;;;;-1.30;67.60;99915.88;109351;1273;22511;-62
2022/03/09 10:35:48;;;;;;;11.80;6.90;;;;;;;-1.28;67.90;99919.97;109056;1274;138533;-62
2022/03/09 10:38:22;;;;;;;8.60;5.90;;;;;;;-1.22;68.04;99919.33;109125;1274;22575;-62
2022/03/09 10:40:56;;;;;;;11.50;6.00;;;;;;;-1.19;67.28;99917.55;108791;1274;22610;-62
2022/03/09 10:43:28;;;;;;;9.90;6.30;;;;;;;-1.17;67.21;99916.79;109110;1274;138197;-62
2022/03/09 10:46:08;;;;;;;7.70;6.00;;;;;;;-1.14;66.64;99917.33;109333;1272;22485;-62
2022/03/09 10:49:12;;;;;;;10.70;6.60;;;;;;;-1.10;65.69;99920.21;109222;1273;137558;-62
2022/03/09 10:51:50;;;;;;;10.60;7.40;;;;;;;-1.10;65.50;99915.60;109344;1273;22480;-62
2022/03/09 10:54:25;;;;;;;10.00;6.30;;;;;;;-1.08;65.74;99916.94;109048;1273;137316;-62
2022/03/09 10:57:10;;;;;;;37.80;19.40;;;;;;;-1.01;65.88;99918.17;109158;1273;22488;-63
2022/03/09 10:59:45;;;;;;;20.60;11.30;;;;;;;-0.96;65.48;99918.45;108949;1273;139272;-62
2022/03/09 11:02:23;;;;;;;14.70;8.80;;;;;;;-0.93;65.10;99914.20;109112;1274;23474;-62
2022/03/09 11:05:17;;;;;;;16.10;9.50;;;;;;;-0.90;65.16;99913.92;109034;1273;22601;-62
2022/03/09 11:07:55;;;;;;;15.00;9.10;;;;;;;-0.88;65.18;99908.34;109387;1273;22482;-62
2022/03/09 11:10:35;;;;;;;16.50;9.90;;;;;;;-0.86;65.23;99908.94;109312;1273;22428;-62
2022/03/09 11:13:09;;;;;;;11.50;7.60;;;;;;;-0.83;65.11;99906.85;108975;1274;137959;-62
2022/03/09 11:15:44;;;;;;;8.80;6.00;;;;;;;-0.81;64.92;99907.67;108929;1277;22716;-62
2022/03/09 11:18:19;;;;;;;9.30;6.00;;;;;;;-0.79;64.99;99904.63;108694;1277;137910;-62
2022/03/09 11:21:07;;;;;;;8.90;5.60;;;;;;;-0.75;64.56;99904.85;109045;1277;22369;-63
2022/03/09 11:23:40;;;;;;;8.00;5.60;;;;;;;-0.72;64.66;99902.08;108815;1277;138425;-62
2022/03/09 11:26:14;;;;;;;10.20;6.20;;;;;;;-0.64;64.87;99903.97;108929;1277;22461;-62
2022/03/09 11:28:43;;;;;;;9.40;5.80;;;;;;;-0.61;64.64;99907.64;108955;1278;22513;-62
2022/03/09 11:31:21;;;;;;;9.10;5.70;;;;;;;-0.60;64.53;99904.86;108892;1276;139456;-62
2022/03/09 11:33:53;;;;;;;9.00;5.70;;;;;;;-0.59;64.64;99903.77;108917;1278;22493;-62
2022/03/09 11:36:33;;;;;;;8.30;6.30;;;;;;;-0.58;64.38;99903.58;108962;1277;138346;-62
2022/03/09 11:39:19;;;;;;;9.00;5.60;;;;;;;-0.58;64.34;99897.91;109065;1277;23647;-62
2022/03/09 11:42:21;;;;;;;9.10;5.60;;;;;;;-0.53;64.29;99906.24;108956;1277;138741;-62